Wilson Gaeta — 8PTS — position and weather

sailwx.info

Track history (hours):
 
Tides and Currents Weather Stations Pressure Air Temp Water Temp Dewpoint Dewpoint Depression Visibility Wind Speed Wind Dir Waves Ship Positions

Wilson Gaeta

Last reported at 2017-Jun-23 10:29 UTC. Time now 2017-Jun-23 10:30 UTC.
Position N 66°20' E 014°08'.

Length 88 m; draft 5.6 m.

Type: Ship. MMSI: 314237000.

Date/timePositionNaut miles runAvg speedWind from/ knotsBaromVisibWave heightAir tempDewpointWater temp
2017-Jun-23 10:29N 66°20' E 014°08'0 0.0
2017-Jun-23 09:59N 66°20' E 014°08'0 0.0
2017-Jun-23 09:29N 66°20' E 014°08'0 0.0
2017-Jun-23 08:59N 66°20' E 014°08'0 0.0
2017-Jun-23 08:29N 66°20' E 014°08'0 0.0
2017-Jun-23 07:59N 66°20' E 014°08'0 0.0
2017-Jun-23 07:29N 66°20' E 014°08'0 0.0
2017-Jun-23 06:59N 66°20' E 014°08'0 0.0
2017-Jun-23 06:29N 66°20' E 014°08'0 0.0
2017-Jun-23 05:59N 66°20' E 014°08'0 0.0
2017-Jun-23 05:29N 66°20' E 014°08'0 0.0
2017-Jun-23 04:59N 66°20' E 014°08'0 0.0
2017-Jun-23 04:29N 66°20' E 014°08'0 0.0
2017-Jun-23 03:59N 66°20' E 014°08'0 0.0
2017-Jun-23 03:29N 66°20' E 014°08'0 0.0
2017-Jun-23 02:59N 66°20' E 014°08'0 0.0
2017-Jun-23 02:29N 66°20' E 014°08'0 0.0
2017-Jun-23 01:59N 66°20' E 014°08'0 0.0
2017-Jun-23 01:29N 66°20' E 014°08'0 0.0
2017-Jun-23 00:59N 66°20' E 014°08'0 0.0
2017-Jun-23 00:29N 66°20' E 014°08'0 0.0
2017-Jun-22 23:59N 66°20' E 014°08'0 0.0
2017-Jun-22 23:29N 66°20' E 014°08'0 0.0
2017-Jun-22 22:59N 66°20' E 014°08'0 0.0
2017-Jun-22 22:29N 66°20' E 014°08'0 0.0
2017-Jun-22 21:59N 66°20' E 014°08'0 0.0
2017-Jun-22 21:29N 66°20' E 014°08'0 0.0
2017-Jun-22 20:59N 66°20' E 014°08'0 0.0
2017-Jun-22 20:29N 66°20' E 014°08'0 0.0
2017-Jun-22 19:59N 66°20' E 014°08'0 0.0
2017-Jun-22 19:29N 66°20' E 014°08'0 0.0
2017-Jun-22 18:59N 66°20' E 014°08'0 0.9
2017-Jun-22 18:30N 66°19' E 014°07'1 1.9
2017-Jun-22 18:00N 66°18' E 014°07'0 0.0
2017-Jun-22 17:30N 66°18' E 014°07'0 0.0
2017-Jun-22 17:00N 66°18' E 014°07'0 0.0
2017-Jun-22 16:30N 66°18' E 014°07'0 0.0
2017-Jun-22 16:00N 66°18' E 014°07'0 0.0
2017-Jun-22 15:30N 66°18' E 014°07'0 0.0
2017-Jun-22 15:00N 66°18' E 014°07'0 0.0
2017-Jun-22 14:00N 66°18' E 014°07'0 0.0
2017-Jun-22 13:30N 66°18' E 014°07'0 0.0
2017-Jun-22 13:00N 66°18' E 014°07'0 0.0
2017-Jun-22 12:30N 66°18' E 014°07'0 0.0
2017-Jun-22 12:00N 66°18' E 014°07'0 0.0
2017-Jun-22 11:30N 66°18' E 014°07'0 0.0
2017-Jun-22 11:00N 66°18' E 014°07'0 0.0
2017-Jun-22 10:30N 66°18' E 014°07'0 0.0
2017-Jun-22 10:00N 66°18' E 014°07'0 0.0
2017-Jun-22 09:30N 66°18' E 014°07'0 0.0
2017-Jun-22 09:00N 66°18' E 014°07'0 0.0
2017-Jun-22 08:30N 66°18' E 014°07'0 0.0
2017-Jun-22 08:00N 66°18' E 014°07'0 0.0
2017-Jun-22 07:30N 66°18' E 014°07'0 0.0
2017-Jun-22 07:00N 66°18' E 014°07'0 0.0
2017-Jun-22 06:30N 66°18' E 014°07'0 0.0
2017-Jun-22 06:00N 66°18' E 014°07'0 0.0
2017-Jun-22 05:30N 66°18' E 014°07'0 0.0
2017-Jun-22 05:00N 66°18' E 014°07'0 0.0
2017-Jun-22 04:30N 66°18' E 014°07'0 0.0
2017-Jun-22 03:57N 66°18' E 014°07'0 0.0
2017-Jun-22 03:30N 66°18' E 014°07'0 0.0
2017-Jun-22 03:00N 66°18' E 014°07'0 0.0
2017-Jun-22 02:30N 66°18' E 014°07'0 0.0
2017-Jun-22 02:00N 66°18' E 014°07'0 0.0
2017-Jun-22 01:30N 66°18' E 014°07'2 3.4
2017-Jun-22 01:00N 66°18' E 014°03'5 9.6
2017-Jun-22 00:31N 66°16' E 013°53'5 9.5
2017-Jun-22 00:00N 66°15' E 013°41'4 8.7
2017-Jun-21 23:30N 66°15' E 013°30'4 8.8
2017-Jun-21 23:00N 66°14' E 013°19'5 9.1
2017-Jun-21 22:30N 66°11' E 013°10'5 9.1
2017-Jun-21 22:00N 66°10' E 012°60'4 8.5
2017-Jun-21 21:30N 66°10' E 012°49'5 9.9
2017-Jun-21 21:00N 66°13' E 012°39'4 8.9
2017-Jun-21 20:30N 66°15' E 012°29'4 8.5
2017-Jun-21 20:01N 66°16' E 012°19'3 7.0
2017-Jun-21 19:31N 66°17' E 012°11'4 8.5
2017-Jun-21 19:01N 66°20' E 012°02'4 8.6
2017-Jun-21 18:31N 66°23' E 011°54'4 8.3
2017-Jun-21 18:01N 66°26' E 011°49'4 8.2
2017-Jun-21 17:30N 66°30' E 011°48'4 8.3
2017-Jun-21 17:01N 66°34' E 011°46'4 8.4
2017-Jun-21 16:31N 66°39' E 011°45'4 8.1
2017-Jun-21 16:00N 66°43' E 011°44'155 8.1
2017-Jun-20 20:46N 69°03' E 014°39'62 8.4
2017-Jun-20 13:27N 69°47' E 016°43'6 7.8
2017-Jun-20 12:39N 69°51' E 016°56'5 8.2
2017-Jun-20 12:02N 69°55' E 017°06'1 8.1
2017-Jun-20 11:57N 69°55' E 017°08'4 8.1
2017-Jun-20 11:30N 69°58' E 017°15'4 8.0
2017-Jun-20 11:00N 70°00' E 017°24'4 8.3
2017-Jun-20 10:30N 70°03' E 017°32'5 8.5
2017-Jun-20 09:56N 70°07' E 017°43'4 8.3
2017-Jun-20 09:30N 70°09' E 017°50'5 9.3
2017-Jun-20 09:00N 70°12' E 018°00'5 9.4
2017-Jun-20 08:30N 70°15' E 018°11'5 9.2
2017-Jun-20 08:00N 70°18' E 018°22'4 8.9
2017-Jun-20 07:30N 70°21' E 018°32'4 8.7
2017-Jun-20 07:00N 70°23' E 018°43'4 8.5
2017-Jun-20 06:30N 70°25' E 018°54'4 8.3
2017-Jun-20 06:00N 70°28' E 019°05'4 7.4
2017-Jun-20 05:30N 70°29' E 019°15'4 7.2
2017-Jun-20 05:00N 70°31' E 019°24'4 7.8
2017-Jun-20 04:30N 70°33' E 019°35'4 8.0
2017-Jun-20 04:01N 70°35' E 019°45'4 8.5
2017-Jun-20 03:30N 70°37' E 019°56'4 8.8
2017-Jun-20 03:00N 70°39' E 020°08'5 8.9
2017-Jun-20 02:30N 70°41' E 020°20'29 8.9
2017-Jun-19 23:14N 70°54' E 021°39'2 8.7
2017-Jun-19 23:00N 70°55' E 021°44'4 8.2
2017-Jun-19 22:30N 70°57' E 021°55'4 7.8
2017-Jun-19 22:00N 70°59' E 022°05'4 7.6
2017-Jun-19 21:30N 71°01' E 022°16'4 7.9
2017-Jun-19 21:00N 71°02' E 022°27'4 7.9
2017-Jun-19 20:30N 71°04' E 022°38'4 8.0
2017-Jun-19 20:00N 71°06' E 022°49'4 8.2
2017-Jun-19 19:30N 71°08' E 023°00'4 8.6
2017-Jun-19 19:00N 71°10' E 023°12'4 8.4
2017-Jun-19 18:30N 71°12' E 023°23'5 8.9
2017-Jun-19 18:00N 71°14' E 023°35'4 8.7
2017-Jun-19 17:30N 71°16' E 023°47'4 9.2
2017-Jun-19 17:01N 71°17' E 024°01'5 9.2
2017-Jun-19 16:30N 71°17' E 024°15'5 9.2
2017-Jun-19 16:01N 71°18' E 024°30'5 9.4
2017-Jun-19 15:30N 71°18' E 024°45'5 9.3
2017-Jun-19 15:00N 71°19' E 024°59'4 9.2
2017-Jun-19 14:30N 71°20' E 025°13'9 9.1
2017-Jun-19 13:30N 71°21' E 025°41'5 9.1
2017-Jun-19 13:00N 71°20' E 025°55'5 9.1
2017-Jun-19 12:30N 71°20' E 026°10'5 9.1
2017-Jun-19 12:00N 71°19' E 026°24'5 9.1
2017-Jun-19 11:30N 71°19' E 026°38'4 8.8
2017-Jun-19 11:00N 71°18' E 026°51'4 8.7
2017-Jun-19 10:30N 71°17' E 027°04'4 8.6
2017-Jun-19 10:01N 71°16' E 027°17'4 8.5
2017-Jun-19 09:30N 71°15' E 027°30'5 9.3
2017-Jun-19 09:00N 71°14' E 027°44'5 9.2
2017-Jun-19 08:30N 71°13' E 027°58'5 9.1
2017-Jun-19 08:00N 71°11' E 028°11'4 9.0
2017-Jun-19 07:30N 71°09' E 028°23'4 8.5
2017-Jun-19 07:00N 71°07' E 028°35'4 8.3
2017-Jun-19 06:30N 71°05' E 028°46'4 8.2
2017-Jun-19 06:00N 71°03' E 028°57'4 8.7
2017-Jun-19 05:31N 71°01' E 029°08'5 9.3
2017-Jun-19 05:00N 70°58' E 029°20'5 9.2
2017-Jun-19 04:30N 70°56' E 029°32'4 8.4
2017-Jun-19 04:00N 70°54' E 029°43'4 8.7
2017-Jun-19 03:30N 70°51' E 029°54'4 8.9
2017-Jun-19 03:00N 70°49' E 030°06'4 8.9
2017-Jun-19 02:30N 70°47' E 030°17'4 8.8
2017-Jun-19 02:00N 70°44' E 030°28'4 8.9
2017-Jun-19 01:30N 70°41' E 030°38'4 8.6
2017-Jun-19 01:00N 70°38' E 030°48'4 8.4
2017-Jun-19 00:30N 70°36' E 030°58'4 8.5
2017-Jun-19 00:00N 70°33' E 031°08'4 8.4
2017-Jun-18 23:30N 70°31' E 031°18'4 8.5
2017-Jun-18 23:00N 70°28' E 031°29'4 8.5
2017-Jun-18 22:30N 70°25' E 031°38'87 8.1
2017-Jun-18 11:42N 69°03' E 033°05'2 8.8
2017-Jun-18 11:31N 69°02' E 033°03'3 6.0
2017-Jun-18 11:01N 68°59' E 033°03'0 0.5
2017-Jun-18 10:30N 68°59' E 033°03'0 0.0
2017-Jun-18 10:00N 68°59' E 033°03'0 0.0
2017-Jun-18 09:30N 68°59' E 033°03'0 0.0
2017-Jun-18 09:00N 68°59' E 033°03'0 0.0
2017-Jun-18 08:30N 68°59' E 033°03'0 0.0
2017-Jun-18 08:00N 68°59' E 033°03'0 0.0
2017-Jun-18 07:30N 68°59' E 033°03'0 0.0
2017-Jun-18 07:00N 68°59' E 033°03'0 0.0
2017-Jun-18 06:30N 68°59' E 033°03'0 0.0
2017-Jun-18 06:00N 68°59' E 033°03'0 0.0
2017-Jun-18 05:30N 68°59' E 033°03'0 0.0
2017-Jun-18 05:00N 68°59' E 033°03'0 0.0
2017-Jun-18 04:30N 68°59' E 033°03'0 0.0
2017-Jun-18 04:00N 68°59' E 033°03'0 0.0
2017-Jun-18 03:27N 68°59' E 033°03'0 0.0
2017-Jun-18 03:00N 68°59' E 033°03'0 0.0
2017-Jun-18 02:30N 68°59' E 033°03'0 0.0
2017-Jun-18 01:57N 68°59' E 033°03'0 0.0
2017-Jun-18 01:30N 68°59' E 033°03'0 0.0
2017-Jun-18 01:00N 68°59' E 033°03'0 0.0
2017-Jun-18 00:30N 68°59' E 033°03'0 0.0
2017-Jun-18 00:00N 68°59' E 033°03'0 0.0
2017-Jun-17 23:30N 68°59' E 033°03'0 0.0
2017-Jun-17 23:00N 68°59' E 033°03'0 0.0
2017-Jun-17 22:30N 68°59' E 033°03'0 0.0
2017-Jun-17 22:00N 68°59' E 033°03'0 0.0
2017-Jun-17 21:30N 68°59' E 033°03'0 0.0
2017-Jun-17 21:00N 68°59' E 033°03'0 0.0
2017-Jun-17 20:30N 68°59' E 033°03'0 0.0
2017-Jun-17 20:00N 68°59' E 033°03'0 0.0
2017-Jun-17 19:30N 68°59' E 033°03'0 0.0
2017-Jun-17 19:00N 68°59' E 033°03'0 0.0
2017-Jun-17 18:30N 68°59' E 033°03'0 0.0
2017-Jun-17 18:00N 68°59' E 033°03'0 0.0
2017-Jun-17 17:30N 68°59' E 033°03'0 0.0
2017-Jun-17 17:00N 68°59' E 033°03'0 0.0
2017-Jun-17 16:30N 68°59' E 033°03'0 0.0
2017-Jun-17 16:00N 68°59' E 033°03'0 0.0
2017-Jun-17 15:30N 68°59' E 033°03'0 0.0
2017-Jun-17 15:00N 68°59' E 033°03'0 0.0
2017-Jun-17 14:30N 68°59' E 033°03'0 0.0
2017-Jun-17 13:30N 68°59' E 033°03'0 0.0
2017-Jun-17 13:00N 68°59' E 033°03'0 0.0
2017-Jun-17 12:31N 68°59' E 033°03'2 3.1
2017-Jun-17 12:00N 69°00' E 033°03'3 6.3
2017-Jun-17 11:31N 69°03' E 033°04'89 5.4
2017-Jun-16 18:55N 70°28' E 031°42'3 7.5
2017-Jun-16 18:30N 70°29' E 031°34'5 9.1
2017-Jun-16 18:00N 70°32' E 031°24'4 7.2
2017-Jun-16 17:29N 70°35' E 031°16'3 7.1
2017-Jun-16 17:00N 70°37' E 031°09'3 6.9
2017-Jun-16 16:30N 70°40' E 031°01'3 6.8
2017-Jun-16 16:00N 70°42' E 030°53'3 6.8
2017-Jun-16 15:30N 70°44' E 030°45'3 6.5
2017-Jun-16 15:00N 70°46' E 030°38'3 6.3
2017-Jun-16 14:30N 70°49' E 030°31'6 6.5
2017-Jun-16 13:30N 70°52' E 030°14'3 6.8
2017-Jun-16 13:00N 70°54' E 030°06'4 8.5
2017-Jun-16 12:30N 70°56' E 029°55'4 8.9
2017-Jun-16 12:00N 70°58' E 029°43'4 8.6
2017-Jun-16 11:30N 71°01' E 029°32'5 9.1
2017-Jun-16 11:00N 71°03' E 029°20'5 9.0
2017-Jun-16 10:30N 71°06' E 029°08'5 9.1
2017-Jun-16 10:00N 71°08' E 028°55'4 8.4
2017-Jun-16 09:30N 71°09' E 028°44'4 7.1
2017-Jun-16 09:00N 71°11' E 028°34'4 7.0
2017-Jun-16 08:30N 71°13' E 028°25'3 7.0
2017-Jun-16 08:00N 71°14' E 028°15'3 6.9
2017-Jun-16 07:30N 71°16' E 028°05'3 7.0
2017-Jun-16 07:00N 71°16' E 027°54'3 7.0
2017-Jun-16 06:30N 71°17' E 027°44'4 7.1
2017-Jun-16 06:00N 71°17' E 027°33'4 7.2
2017-Jun-16 05:30N 71°18' E 027°22'4 7.2
2017-Jun-16 05:00N 71°18' E 027°10'4 7.1
2017-Jun-16 04:30N 71°18' E 026°59'3 6.9
2017-Jun-16 04:00N 71°19' E 026°49'4 7.2
2017-Jun-16 03:30N 71°19' E 026°37'4 8.9
2017-Jun-16 03:00N 71°19' E 026°23'4 8.9
2017-Jun-16 02:30N 71°20' E 026°10'4 8.7
2017-Jun-16 02:00N 71°20' E 025°56'4 8.4
2017-Jun-16 01:30N 71°20' E 025°43'4 8.4
2017-Jun-16 01:01N 71°20' E 025°30'4 8.5
2017-Jun-16 00:30N 71°19' E 025°17'4 8.8
2017-Jun-16 00:01N 71°19' E 025°04'4 8.5
2017-Jun-15 23:30N 71°18' E 024°50'4 8.6
2017-Jun-15 23:00N 71°18' E 024°37'4 8.6
2017-Jun-15 22:30N 71°17' E 024°23'4 8.6
2017-Jun-15 22:00N 71°16' E 024°10'4 8.5
2017-Jun-15 21:30N 71°16' E 023°58'3 6.5
2017-Jun-15 21:00N 71°15' E 023°47'3 6.6
2017-Jun-15 20:30N 71°14' E 023°38'3 6.6
2017-Jun-15 20:00N 71°13' E 023°28'3 6.7
2017-Jun-15 19:30N 71°11' E 023°19'3 6.8
2017-Jun-15 19:00N 71°10' E 023°10'3 6.7
2017-Jun-15 18:30N 71°08' E 023°01'3 6.8
2017-Jun-15 18:00N 71°07' E 022°51'4 7.0
2017-Jun-15 17:30N 71°05' E 022°41'510.4
2017-Jun-15 17:00N 71°03' E 022°27'5 9.9
2017-Jun-15 16:30N 71°01' E 022°13'5 9.6
2017-Jun-15 16:00N 70°59' E 021°60'5 9.2
2017-Jun-15 15:30N 70°57' E 021°47'35 8.6
2017-Jun-15 11:29N 70°41' E 020°12'4 8.3
2017-Jun-15 11:00N 70°40' E 020°01'4 8.0
2017-Jun-15 10:30N 70°38' E 019°50'4 8.0
2017-Jun-15 10:00N 70°36' E 019°40'4 7.3
2017-Jun-15 09:30N 70°34' E 019°31'3 5.9
2017-Jun-15 09:00N 70°32' E 019°24'3 6.1
2017-Jun-15 08:30N 70°30' E 019°17'3 6.2
2017-Jun-15 08:00N 70°28' E 019°10'3 6.1
2017-Jun-15 07:30N 70°26' E 019°03'3 6.3
2017-Jun-15 07:00N 70°24' E 018°56'3 6.5
2017-Jun-15 06:30N 70°22' E 018°49'3 6.4
2017-Jun-15 06:00N 70°19' E 018°43'4 8.7
2017-Jun-15 05:30N 70°16' E 018°34'5 9.3
2017-Jun-15 05:00N 70°13' E 018°25'5 9.1
2017-Jun-15 04:30N 70°09' E 018°17'4 8.8
2017-Jun-15 04:00N 70°05' E 018°09'4 8.9
2017-Jun-15 03:30N 70°02' E 018°02'4 8.8
2017-Jun-15 03:00N 69°58' E 017°55'4 9.0
2017-Jun-15 02:30N 69°54' E 017°51'4 8.4
2017-Jun-15 02:00N 69°50' E 017°48'4 8.9
2017-Jun-15 01:30N 69°45' E 017°48'5 9.2
2017-Jun-15 01:00N 69°41' E 017°48'4 8.5
2017-Jun-15 00:31N 69°37' E 017°51'4 8.9
2017-Jun-15 00:00N 69°33' E 017°59'4 8.9
2017-Jun-14 23:30N 69°29' E 018°07'4 8.4
2017-Jun-14 23:00N 69°25' E 018°07'5 8.9
2017-Jun-14 22:30N 69°21' E 018°05'510.2
2017-Jun-14 22:00N 69°16' E 017°58'4 7.1
2017-Jun-14 21:30N 69°13' E 018°04'0 0.3
2017-Jun-14 21:00N 69°13' E 018°05'0 0.0
2017-Jun-14 20:30N 69°13' E 018°05'0 0.0
2017-Jun-14 20:00N 69°13' E 018°05'0 0.0
2017-Jun-14 19:30N 69°13' E 018°05'0 0.0
2017-Jun-14 19:00N 69°13' E 018°05'0 0.0
2017-Jun-14 18:30N 69°13' E 018°05'0 0.0
2017-Jun-14 18:00N 69°13' E 018°05'0 0.0
2017-Jun-14 17:30N 69°13' E 018°05'0 0.0
2017-Jun-14 17:00N 69°13' E 018°05'0 0.0
2017-Jun-14 16:30N 69°13' E 018°05'0 0.0
2017-Jun-14 16:00N 69°13' E 018°05'0 0.0
2017-Jun-14 15:30N 69°13' E 018°05'0 0.0
2017-Jun-14 15:00N 69°13' E 018°05'0 0.0
2017-Jun-14 14:00N 69°13' E 018°05'0 0.0
2017-Jun-14 13:30N 69°13' E 018°05'0 0.0
2017-Jun-14 13:00N 69°13' E 018°05'0 0.0
2017-Jun-14 12:30N 69°13' E 018°05'0 0.0
2017-Jun-14 12:00N 69°13' E 018°05'0 0.0
2017-Jun-14 11:30N 69°13' E 018°05'0 0.0
2017-Jun-14 11:00N 69°13' E 018°05'0 0.0
2017-Jun-14 10:30N 69°13' E 018°05'0 0.0
2017-Jun-14 10:00N 69°13' E 018°05'0 0.0
2017-Jun-14 09:30N 69°13' E 018°05'0 0.0
2017-Jun-14 09:00N 69°13' E 018°05'0 0.0
2017-Jun-14 08:30N 69°13' E 018°05'0 0.0
2017-Jun-14 08:00N 69°13' E 018°05'0 0.0
2017-Jun-14 07:30N 69°13' E 018°05'0 0.0
2017-Jun-14 07:00N 69°13' E 018°05'0 0.0
2017-Jun-14 06:30N 69°13' E 018°05'0 0.0
2017-Jun-14 06:00N 69°13' E 018°05'0 0.0
2017-Jun-14 05:30N 69°13' E 018°05'0 0.0
2017-Jun-14 05:00N 69°13' E 018°05'0 0.0
2017-Jun-14 04:30N 69°13' E 018°05'0 0.0
2017-Jun-14 04:00N 69°13' E 018°05'0 0.0
2017-Jun-14 03:30N 69°13' E 018°05'2 3.3
2017-Jun-14 03:00N 69°12' E 018°02'5 9.6
2017-Jun-14 02:30N 69°09' E 017°51'5 9.9
2017-Jun-14 02:00N 69°07' E 017°38'510.1
2017-Jun-14 01:30N 69°05' E 017°25'5 9.9
2017-Jun-14 01:00N 69°01' E 017°17'510.2
2017-Jun-14 00:30N 68°57' E 017°08'510.3
2017-Jun-14 00:00N 68°53' E 016°60'510.3
2017-Jun-13 23:30N 68°49' E 016°52'510.2
2017-Jun-13 23:00N 68°44' E 016°45'5 9.9
2017-Jun-13 22:30N 68°40' E 016°38'5 9.2
2017-Jun-13 22:00N 68°36' E 016°33'4 7.2
2017-Jun-13 21:30N 68°33' E 016°26'5 9.0
2017-Jun-13 21:00N 68°33' E 016°14'5 9.8
2017-Jun-13 20:30N 68°29' E 016°07'5 9.8
2017-Jun-13 20:00N 68°24' E 016°02'4 7.5
2017-Jun-13 19:30N 68°21' E 015°57'5 8.8
2017-Jun-13 19:00N 68°17' E 015°49'4 8.8
2017-Jun-13 18:30N 68°14' E 015°41'5 9.0
2017-Jun-13 18:00N 68°12' E 015°31'4 7.2
2017-Jun-13 17:30N 68°10' E 015°22'3 7.0
2017-Jun-13 17:00N 68°09' E 015°14'5 9.4
2017-Jun-13 16:30N 68°06' E 015°03'4 8.2
2017-Jun-13 15:59N 68°04' E 014°53'3 6.2
2017-Jun-13 15:30N 68°03' E 014°46'3 6.1
2017-Jun-13 15:00N 68°01' E 014°39'3 6.1
2017-Jun-13 14:30N 67°59' E 014°32'7 7.5
2017-Jun-13 13:30N 67°56' E 014°15'5 8.9
2017-Jun-13 13:00N 67°53' E 014°06'5 9.2
2017-Jun-13 12:30N 67°49' E 013°58'4 8.9
2017-Jun-13 12:00N 67°46' E 013°50'5 8.9
2017-Jun-13 11:30N 67°43' E 013°41'4 8.8
2017-Jun-13 11:00N 67°40' E 013°33'4 8.7
2017-Jun-13 10:30N 67°37' E 013°26'  
Track history (hours):
 
Tides and Currents Weather Stations Pressure Air Temp Water Temp Dewpoint Dewpoint Depression Visibility Wind Speed Wind Dir Waves Ship Positions

Wilson Gaeta

Last reported at 2017-Jun-23 10:29 UTC. Time now 2017-Jun-23 10:30 UTC.
Position N 66°20' E 014°08'.

Length 88 m; draft 5.6 m.

Type: Ship. MMSI: 314237000.

Date/timePositionNaut miles runAvg speedWind from/ knotsBaromVisibWave heightAir tempDewpointWater temp
2017-Jun-23 10:29N 66°20' E 014°08'0 0.0
2017-Jun-23 09:59N 66°20' E 014°08'0 0.0
2017-Jun-23 09:29N 66°20' E 014°08'0 0.0
2017-Jun-23 08:59N 66°20' E 014°08'0 0.0
2017-Jun-23 08:29N 66°20' E 014°08'0 0.0
2017-Jun-23 07:59N 66°20' E 014°08'0 0.0
2017-Jun-23 07:29N 66°20' E 014°08'0 0.0
2017-Jun-23 06:59N 66°20' E 014°08'0 0.0
2017-Jun-23 06:29N 66°20' E 014°08'0 0.0
2017-Jun-23 05:59N 66°20' E 014°08'0 0.0
2017-Jun-23 05:29N 66°20' E 014°08'0 0.0
2017-Jun-23 04:59N 66°20' E 014°08'0 0.0
2017-Jun-23 04:29N 66°20' E 014°08'0 0.0
2017-Jun-23 03:59N 66°20' E 014°08'0 0.0
2017-Jun-23 03:29N 66°20' E 014°08'0 0.0
2017-Jun-23 02:59N 66°20' E 014°08'0 0.0
2017-Jun-23 02:29N 66°20' E 014°08'0 0.0
2017-Jun-23 01:59N 66°20' E 014°08'0 0.0
2017-Jun-23 01:29N 66°20' E 014°08'0 0.0
2017-Jun-23 00:59N 66°20' E 014°08'0 0.0
2017-Jun-23 00:29N 66°20' E 014°08'0 0.0
2017-Jun-22 23:59N 66°20' E 014°08'0 0.0
2017-Jun-22 23:29N 66°20' E 014°08'0 0.0
2017-Jun-22 22:59N 66°20' E 014°08'0 0.0
2017-Jun-22 22:29N 66°20' E 014°08'0 0.0
2017-Jun-22 21:59N 66°20' E 014°08'0 0.0
2017-Jun-22 21:29N 66°20' E 014°08'0 0.0
2017-Jun-22 20:59N 66°20' E 014°08'0 0.0
2017-Jun-22 20:29N 66°20' E 014°08'0 0.0
2017-Jun-22 19:59N 66°20' E 014°08'0 0.0
2017-Jun-22 19:29N 66°20' E 014°08'0 0.0
2017-Jun-22 18:59N 66°20' E 014°08'0 0.9
2017-Jun-22 18:30N 66°19' E 014°07'1 1.9
2017-Jun-22 18:00N 66°18' E 014°07'0 0.0
2017-Jun-22 17:30N 66°18' E 014°07'0 0.0
2017-Jun-22 17:00N 66°18' E 014°07'0 0.0
2017-Jun-22 16:30N 66°18' E 014°07'0 0.0
2017-Jun-22 16:00N 66°18' E 014°07'0 0.0
2017-Jun-22 15:30N 66°18' E 014°07'0 0.0
2017-Jun-22 15:00N 66°18' E 014°07'0 0.0
2017-Jun-22 14:00N 66°18' E 014°07'0 0.0
2017-Jun-22 13:30N 66°18' E 014°07'0 0.0
2017-Jun-22 13:00N 66°18' E 014°07'0 0.0
2017-Jun-22 12:30N 66°18' E 014°07'0 0.0
2017-Jun-22 12:00N 66°18' E 014°07'0 0.0
2017-Jun-22 11:30N 66°18' E 014°07'0 0.0
2017-Jun-22 11:00N 66°18' E 014°07'0 0.0
2017-Jun-22 10:30N 66°18' E 014°07'0 0.0
2017-Jun-22 10:00N 66°18' E 014°07'0 0.0
2017-Jun-22 09:30N 66°18' E 014°07'0 0.0
2017-Jun-22 09:00N 66°18' E 014°07'0 0.0
2017-Jun-22 08:30N 66°18' E 014°07'0 0.0
2017-Jun-22 08:00N 66°18' E 014°07'0 0.0
2017-Jun-22 07:30N 66°18' E 014°07'0 0.0
2017-Jun-22 07:00N 66°18' E 014°07'0 0.0
2017-Jun-22 06:30N 66°18' E 014°07'0 0.0
2017-Jun-22 06:00N 66°18' E 014°07'0 0.0
2017-Jun-22 05:30N 66°18' E 014°07'0 0.0
2017-Jun-22 05:00N 66°18' E 014°07'0 0.0
2017-Jun-22 04:30N 66°18' E 014°07'0 0.0
2017-Jun-22 03:57N 66°18' E 014°07'0 0.0
2017-Jun-22 03:30N 66°18' E 014°07'0 0.0
2017-Jun-22 03:00N 66°18' E 014°07'0 0.0
2017-Jun-22 02:30N 66°18' E 014°07'0 0.0
2017-Jun-22 02:00N 66°18' E 014°07'0 0.0
2017-Jun-22 01:30N 66°18' E 014°07'2 3.4
2017-Jun-22 01:00N 66°18' E 014°03'5 9.6
2017-Jun-22 00:31N 66°16' E 013°53'5 9.5
2017-Jun-22 00:00N 66°15' E 013°41'4 8.7
2017-Jun-21 23:30N 66°15' E 013°30'4 8.8
2017-Jun-21 23:00N 66°14' E 013°19'5 9.1
2017-Jun-21 22:30N 66°11' E 013°10'5 9.1
2017-Jun-21 22:00N 66°10' E 012°60'4 8.5
2017-Jun-21 21:30N 66°10' E 012°49'5 9.9
2017-Jun-21 21:00N 66°13' E 012°39'4 8.9
2017-Jun-21 20:30N 66°15' E 012°29'4 8.5
2017-Jun-21 20:01N 66°16' E 012°19'3 7.0
2017-Jun-21 19:31N 66°17' E 012°11'4 8.5
2017-Jun-21 19:01N 66°20' E 012°02'4 8.6
2017-Jun-21 18:31N 66°23' E 011°54'4 8.3
2017-Jun-21 18:01N 66°26' E 011°49'4 8.2
2017-Jun-21 17:30N 66°30' E 011°48'4 8.3
2017-Jun-21 17:01N 66°34' E 011°46'4 8.4
2017-Jun-21 16:31N 66°39' E 011°45'4 8.1
2017-Jun-21 16:00N 66°43' E 011°44'155 8.1
2017-Jun-20 20:46N 69°03' E 014°39'62 8.4
2017-Jun-20 13:27N 69°47' E 016°43'6 7.8
2017-Jun-20 12:39N 69°51' E 016°56'5 8.2
2017-Jun-20 12:02N 69°55' E 017°06'1 8.1
2017-Jun-20 11:57N 69°55' E 017°08'4 8.1
2017-Jun-20 11:30N 69°58' E 017°15'4 8.0
2017-Jun-20 11:00N 70°00' E 017°24'4 8.3
2017-Jun-20 10:30N 70°03' E 017°32'5 8.5
2017-Jun-20 09:56N 70°07' E 017°43'4 8.3
2017-Jun-20 09:30N 70°09' E 017°50'5 9.3
2017-Jun-20 09:00N 70°12' E 018°00'5 9.4
2017-Jun-20 08:30N 70°15' E 018°11'5 9.2
2017-Jun-20 08:00N 70°18' E 018°22'4 8.9
2017-Jun-20 07:30N 70°21' E 018°32'4 8.7
2017-Jun-20 07:00N 70°23' E 018°43'4 8.5
2017-Jun-20 06:30N 70°25' E 018°54'4 8.3
2017-Jun-20 06:00N 70°28' E 019°05'4 7.4
2017-Jun-20 05:30N 70°29' E 019°15'4 7.2
2017-Jun-20 05:00N 70°31' E 019°24'4 7.8
2017-Jun-20 04:30N 70°33' E 019°35'4 8.0
2017-Jun-20 04:01N 70°35' E 019°45'4 8.5
2017-Jun-20 03:30N 70°37' E 019°56'4 8.8
2017-Jun-20 03:00N 70°39' E 020°08'5 8.9
2017-Jun-20 02:30N 70°41' E 020°20'29 8.9
2017-Jun-19 23:14N 70°54' E 021°39'2 8.7
2017-Jun-19 23:00N 70°55' E 021°44'4 8.2
2017-Jun-19 22:30N 70°57' E 021°55'4 7.8
2017-Jun-19 22:00N 70°59' E 022°05'4 7.6
2017-Jun-19 21:30N 71°01' E 022°16'4 7.9
2017-Jun-19 21:00N 71°02' E 022°27'4 7.9
2017-Jun-19 20:30N 71°04' E 022°38'4 8.0
2017-Jun-19 20:00N 71°06' E 022°49'4 8.2
2017-Jun-19 19:30N 71°08' E 023°00'4 8.6
2017-Jun-19 19:00N 71°10' E 023°12'4 8.4
2017-Jun-19 18:30N 71°12' E 023°23'5 8.9
2017-Jun-19 18:00N 71°14' E 023°35'4 8.7
2017-Jun-19 17:30N 71°16' E 023°47'4 9.2
2017-Jun-19 17:01N 71°17' E 024°01'5 9.2
2017-Jun-19 16:30N 71°17' E 024°15'5 9.2
2017-Jun-19 16:01N 71°18' E 024°30'5 9.4
2017-Jun-19 15:30N 71°18' E 024°45'5 9.3
2017-Jun-19 15:00N 71°19' E 024°59'4 9.2
2017-Jun-19 14:30N 71°20' E 025°13'9 9.1
2017-Jun-19 13:30N 71°21' E 025°41'5 9.1
2017-Jun-19 13:00N 71°20' E 025°55'5 9.1
2017-Jun-19 12:30N 71°20' E 026°10'5 9.1
2017-Jun-19 12:00N 71°19' E 026°24'5 9.1
2017-Jun-19 11:30N 71°19' E 026°38'4 8.8
2017-Jun-19 11:00N 71°18' E 026°51'4 8.7
2017-Jun-19 10:30N 71°17' E 027°04'4 8.6
2017-Jun-19 10:01N 71°16' E 027°17'4 8.5
2017-Jun-19 09:30N 71°15' E 027°30'5 9.3
2017-Jun-19 09:00N 71°14' E 027°44'5 9.2
2017-Jun-19 08:30N 71°13' E 027°58'5 9.1
2017-Jun-19 08:00N 71°11' E 028°11'4 9.0
2017-Jun-19 07:30N 71°09' E 028°23'4 8.5
2017-Jun-19 07:00N 71°07' E 028°35'4 8.3
2017-Jun-19 06:30N 71°05' E 028°46'4 8.2
2017-Jun-19 06:00N 71°03' E 028°57'4 8.7
2017-Jun-19 05:31N 71°01' E 029°08'5 9.3
2017-Jun-19 05:00N 70°58' E 029°20'5 9.2
2017-Jun-19 04:30N 70°56' E 029°32'4 8.4
2017-Jun-19 04:00N 70°54' E 029°43'4 8.7
2017-Jun-19 03:30N 70°51' E 029°54'4 8.9
2017-Jun-19 03:00N 70°49' E 030°06'4 8.9
2017-Jun-19 02:30N 70°47' E 030°17'4 8.8
2017-Jun-19 02:00N 70°44' E 030°28'4 8.9
2017-Jun-19 01:30N 70°41' E 030°38'4 8.6
2017-Jun-19 01:00N 70°38' E 030°48'4 8.4
2017-Jun-19 00:30N 70°36' E 030°58'4 8.5
2017-Jun-19 00:00N 70°33' E 031°08'4 8.4
2017-Jun-18 23:30N 70°31' E 031°18'4 8.5
2017-Jun-18 23:00N 70°28' E 031°29'4 8.5
2017-Jun-18 22:30N 70°25' E 031°38'87 8.1
2017-Jun-18 11:42N 69°03' E 033°05'2 8.8
2017-Jun-18 11:31N 69°02' E 033°03'3 6.0
2017-Jun-18 11:01N 68°59' E 033°03'0 0.5
2017-Jun-18 10:30N 68°59' E 033°03'0 0.0
2017-Jun-18 10:00N 68°59' E 033°03'0 0.0
2017-Jun-18 09:30N 68°59' E 033°03'0 0.0
2017-Jun-18 09:00N 68°59' E 033°03'0 0.0
2017-Jun-18 08:30N 68°59' E 033°03'0 0.0
2017-Jun-18 08:00N 68°59' E 033°03'0 0.0
2017-Jun-18 07:30N 68°59' E 033°03'0 0.0
2017-Jun-18 07:00N 68°59' E 033°03'0 0.0
2017-Jun-18 06:30N 68°59' E 033°03'0 0.0
2017-Jun-18 06:00N 68°59' E 033°03'0 0.0
2017-Jun-18 05:30N 68°59' E 033°03'0 0.0
2017-Jun-18 05:00N 68°59' E 033°03'0 0.0
2017-Jun-18 04:30N 68°59' E 033°03'0 0.0
2017-Jun-18 04:00N 68°59' E 033°03'0 0.0
2017-Jun-18 03:27N 68°59' E 033°03'0 0.0
2017-Jun-18 03:00N 68°59' E 033°03'0 0.0
2017-Jun-18 02:30N 68°59' E 033°03'0 0.0
2017-Jun-18 01:57N 68°59' E 033°03'0 0.0
2017-Jun-18 01:30N 68°59' E 033°03'0 0.0
2017-Jun-18 01:00N 68°59' E 033°03'0 0.0
2017-Jun-18 00:30N 68°59' E 033°03'0 0.0
2017-Jun-18 00:00N 68°59' E 033°03'0 0.0
2017-Jun-17 23:30N 68°59' E 033°03'0 0.0
2017-Jun-17 23:00N 68°59' E 033°03'0 0.0
2017-Jun-17 22:30N 68°59' E 033°03'0 0.0
2017-Jun-17 22:00N 68°59' E 033°03'0 0.0
2017-Jun-17 21:30N 68°59' E 033°03'0 0.0
2017-Jun-17 21:00N 68°59' E 033°03'0 0.0
2017-Jun-17 20:30N 68°59' E 033°03'0 0.0
2017-Jun-17 20:00N 68°59' E 033°03'0 0.0
2017-Jun-17 19:30N 68°59' E 033°03'0 0.0
2017-Jun-17 19:00N 68°59' E 033°03'0 0.0
2017-Jun-17 18:30N 68°59' E 033°03'0 0.0
2017-Jun-17 18:00N 68°59' E 033°03'0 0.0
2017-Jun-17 17:30N 68°59' E 033°03'0 0.0
2017-Jun-17 17:00N 68°59' E 033°03'0 0.0
2017-Jun-17 16:30N 68°59' E 033°03'0 0.0
2017-Jun-17 16:00N 68°59' E 033°03'0 0.0
2017-Jun-17 15:30N 68°59' E 033°03'0 0.0
2017-Jun-17 15:00N 68°59' E 033°03'0 0.0
2017-Jun-17 14:30N 68°59' E 033°03'0 0.0
2017-Jun-17 13:30N 68°59' E 033°03'0 0.0
2017-Jun-17 13:00N 68°59' E 033°03'0 0.0
2017-Jun-17 12:31N 68°59' E 033°03'2 3.1
2017-Jun-17 12:00N 69°00' E 033°03'3 6.3
2017-Jun-17 11:31N 69°03' E 033°04'89 5.4
2017-Jun-16 18:55N 70°28' E 031°42'3 7.5
2017-Jun-16 18:30N 70°29' E 031°34'5 9.1
2017-Jun-16 18:00N 70°32' E 031°24'4 7.2
2017-Jun-16 17:29N 70°35' E 031°16'3 7.1
2017-Jun-16 17:00N 70°37' E 031°09'3 6.9
2017-Jun-16 16:30N 70°40' E 031°01'3 6.8
2017-Jun-16 16:00N 70°42' E 030°53'3 6.8
2017-Jun-16 15:30N 70°44' E 030°45'3 6.5
2017-Jun-16 15:00N 70°46' E 030°38'3 6.3
2017-Jun-16 14:30N 70°49' E 030°31'6 6.5
2017-Jun-16 13:30N 70°52' E 030°14'3 6.8
2017-Jun-16 13:00N 70°54' E 030°06'4 8.5
2017-Jun-16 12:30N 70°56' E 029°55'4 8.9
2017-Jun-16 12:00N 70°58' E 029°43'4 8.6
2017-Jun-16 11:30N 71°01' E 029°32'5 9.1
2017-Jun-16 11:00N 71°03' E 029°20'5 9.0
2017-Jun-16 10:30N 71°06' E 029°08'5 9.1
2017-Jun-16 10:00N 71°08' E 028°55'4 8.4
2017-Jun-16 09:30N 71°09' E 028°44'4 7.1
2017-Jun-16 09:00N 71°11' E 028°34'4 7.0
2017-Jun-16 08:30N 71°13' E 028°25'3 7.0
2017-Jun-16 08:00N 71°14' E 028°15'3 6.9
2017-Jun-16 07:30N 71°16' E 028°05'3 7.0
2017-Jun-16 07:00N 71°16' E 027°54'3 7.0
2017-Jun-16 06:30N 71°17' E 027°44'4 7.1
2017-Jun-16 06:00N 71°17' E 027°33'4 7.2
2017-Jun-16 05:30N 71°18' E 027°22'4 7.2
2017-Jun-16 05:00N 71°18' E 027°10'4 7.1
2017-Jun-16 04:30N 71°18' E 026°59'3 6.9
2017-Jun-16 04:00N 71°19' E 026°49'4 7.2
2017-Jun-16 03:30N 71°19' E 026°37'4 8.9
2017-Jun-16 03:00N 71°19' E 026°23'4 8.9
2017-Jun-16 02:30N 71°20' E 026°10'4 8.7
2017-Jun-16 02:00N 71°20' E 025°56'4 8.4
2017-Jun-16 01:30N 71°20' E 025°43'4 8.4
2017-Jun-16 01:01N 71°20' E 025°30'4 8.5
2017-Jun-16 00:30N 71°19' E 025°17'4 8.8
2017-Jun-16 00:01N 71°19' E 025°04'4 8.5
2017-Jun-15 23:30N 71°18' E 024°50'4 8.6
2017-Jun-15 23:00N 71°18' E 024°37'4 8.6
2017-Jun-15 22:30N 71°17' E 024°23'4 8.6
2017-Jun-15 22:00N 71°16' E 024°10'4 8.5
2017-Jun-15 21:30N 71°16' E 023°58'3 6.5
2017-Jun-15 21:00N 71°15' E 023°47'3 6.6
2017-Jun-15 20:30N 71°14' E 023°38'3 6.6
2017-Jun-15 20:00N 71°13' E 023°28'3 6.7
2017-Jun-15 19:30N 71°11' E 023°19'3 6.8
2017-Jun-15 19:00N 71°10' E 023°10'3 6.7
2017-Jun-15 18:30N 71°08' E 023°01'3 6.8
2017-Jun-15 18:00N 71°07' E 022°51'4 7.0
2017-Jun-15 17:30N 71°05' E 022°41'510.4
2017-Jun-15 17:00N 71°03' E 022°27'5 9.9
2017-Jun-15 16:30N 71°01' E 022°13'5 9.6
2017-Jun-15 16:00N 70°59' E 021°60'5 9.2
2017-Jun-15 15:30N 70°57' E 021°47'35 8.6
2017-Jun-15 11:29N 70°41' E 020°12'4 8.3
2017-Jun-15 11:00N 70°40' E 020°01'4 8.0
2017-Jun-15 10:30N 70°38' E 019°50'4 8.0
2017-Jun-15 10:00N 70°36' E 019°40'4 7.3
2017-Jun-15 09:30N 70°34' E 019°31'3 5.9
2017-Jun-15 09:00N 70°32' E 019°24'3 6.1
2017-Jun-15 08:30N 70°30' E 019°17'3 6.2
2017-Jun-15 08:00N 70°28' E 019°10'3 6.1
2017-Jun-15 07:30N 70°26' E 019°03'3 6.3
2017-Jun-15 07:00N 70°24' E 018°56'3 6.5
2017-Jun-15 06:30N 70°22' E 018°49'3 6.4
2017-Jun-15 06:00N 70°19' E 018°43'4 8.7
2017-Jun-15 05:30N 70°16' E 018°34'5 9.3
2017-Jun-15 05:00N 70°13' E 018°25'5 9.1
2017-Jun-15 04:30N 70°09' E 018°17'4 8.8
2017-Jun-15 04:00N 70°05' E 018°09'4 8.9
2017-Jun-15 03:30N 70°02' E 018°02'4 8.8
2017-Jun-15 03:00N 69°58' E 017°55'4 9.0
2017-Jun-15 02:30N 69°54' E 017°51'4 8.4
2017-Jun-15 02:00N 69°50' E 017°48'4 8.9
2017-Jun-15 01:30N 69°45' E 017°48'5 9.2
2017-Jun-15 01:00N 69°41' E 017°48'4 8.5
2017-Jun-15 00:31N 69°37' E 017°51'4 8.9
2017-Jun-15 00:00N 69°33' E 017°59'4 8.9
2017-Jun-14 23:30N 69°29' E 018°07'4 8.4
2017-Jun-14 23:00N 69°25' E 018°07'5 8.9
2017-Jun-14 22:30N 69°21' E 018°05'510.2
2017-Jun-14 22:00N 69°16' E 017°58'4 7.1
2017-Jun-14 21:30N 69°13' E 018°04'0 0.3
2017-Jun-14 21:00N 69°13' E 018°05'0 0.0
2017-Jun-14 20:30N 69°13' E 018°05'0 0.0
2017-Jun-14 20:00N 69°13' E 018°05'0 0.0
2017-Jun-14 19:30N 69°13' E 018°05'0 0.0
2017-Jun-14 19:00N 69°13' E 018°05'0 0.0
2017-Jun-14 18:30N 69°13' E 018°05'0 0.0
2017-Jun-14 18:00N 69°13' E 018°05'0 0.0
2017-Jun-14 17:30N 69°13' E 018°05'0 0.0
2017-Jun-14 17:00N 69°13' E 018°05'0 0.0
2017-Jun-14 16:30N 69°13' E 018°05'0 0.0
2017-Jun-14 16:00N 69°13' E 018°05'0 0.0
2017-Jun-14 15:30N 69°13' E 018°05'0 0.0
2017-Jun-14 15:00N 69°13' E 018°05'0 0.0
2017-Jun-14 14:00N 69°13' E 018°05'0 0.0
2017-Jun-14 13:30N 69°13' E 018°05'0 0.0
2017-Jun-14 13:00N 69°13' E 018°05'0 0.0
2017-Jun-14 12:30N 69°13' E 018°05'0 0.0
2017-Jun-14 12:00N 69°13' E 018°05'0 0.0
2017-Jun-14 11:30N 69°13' E 018°05'0 0.0
2017-Jun-14 11:00N 69°13' E 018°05'0 0.0
2017-Jun-14 10:30N 69°13' E 018°05'0 0.0
2017-Jun-14 10:00N 69°13' E 018°05'0 0.0
2017-Jun-14 09:30N 69°13' E 018°05'0 0.0
2017-Jun-14 09:00N 69°13' E 018°05'0 0.0
2017-Jun-14 08:30N 69°13' E 018°05'0 0.0
2017-Jun-14 08:00N 69°13' E 018°05'0 0.0
2017-Jun-14 07:30N 69°13' E 018°05'0 0.0
2017-Jun-14 07:00N 69°13' E 018°05'0 0.0
2017-Jun-14 06:30N 69°13' E 018°05'0 0.0
2017-Jun-14 06:00N 69°13' E 018°05'0 0.0
2017-Jun-14 05:30N 69°13' E 018°05'0 0.0
2017-Jun-14 05:00N 69°13' E 018°05'0 0.0
2017-Jun-14 04:30N 69°13' E 018°05'0 0.0
2017-Jun-14 04:00N 69°13' E 018°05'0 0.0
2017-Jun-14 03:30N 69°13' E 018°05'2 3.3
2017-Jun-14 03:00N 69°12' E 018°02'5 9.6
2017-Jun-14 02:30N 69°09' E 017°51'5 9.9
2017-Jun-14 02:00N 69°07' E 017°38'510.1
2017-Jun-14 01:30N 69°05' E 017°25'5 9.9
2017-Jun-14 01:00N 69°01' E 017°17'510.2
2017-Jun-14 00:30N 68°57' E 017°08'510.3
2017-Jun-14 00:00N 68°53' E 016°60'510.3
2017-Jun-13 23:30N 68°49' E 016°52'510.2
2017-Jun-13 23:00N 68°44' E 016°45'5 9.9
2017-Jun-13 22:30N 68°40' E 016°38'5 9.2
2017-Jun-13 22:00N 68°36' E 016°33'4 7.2
2017-Jun-13 21:30N 68°33' E 016°26'5 9.0
2017-Jun-13 21:00N 68°33' E 016°14'5 9.8
2017-Jun-13 20:30N 68°29' E 016°07'5 9.8
2017-Jun-13 20:00N 68°24' E 016°02'4 7.5
2017-Jun-13 19:30N 68°21' E 015°57'5 8.8
2017-Jun-13 19:00N 68°17' E 015°49'4 8.8
2017-Jun-13 18:30N 68°14' E 015°41'5 9.0
2017-Jun-13 18:00N 68°12' E 015°31'4 7.2
2017-Jun-13 17:30N 68°10' E 015°22'3 7.0
2017-Jun-13 17:00N 68°09' E 015°14'5 9.4
2017-Jun-13 16:30N 68°06' E 015°03'4 8.2
2017-Jun-13 15:59N 68°04' E 014°53'3 6.2
2017-Jun-13 15:30N 68°03' E 014°46'3 6.1
2017-Jun-13 15:00N 68°01' E 014°39'3 6.1
2017-Jun-13 14:30N 67°59' E 014°32'7 7.5
2017-Jun-13 13:30N 67°56' E 014°15'5 8.9
2017-Jun-13 13:00N 67°53' E 014°06'5 9.2
2017-Jun-13 12:30N 67°49' E 013°58'4 8.9
2017-Jun-13 12:00N 67°46' E 013°50'5 8.9
2017-Jun-13 11:30N 67°43' E 013°41'4 8.8
2017-Jun-13 11:00N 67°40' E 013°33'4 8.7
2017-Jun-13 10:30N 67°37' E 013°26'  

Dump ship's entire track history